createdAt,value
2023-04-06T00:01:16.945Z,11.77
2023-04-06T00:03:44.073Z,13.77
2023-04-06T00:06:11.412Z,13.10
2023-04-06T00:08:38.468Z,14.67
2023-04-06T00:11:05.776Z,12.50
2023-04-06T00:13:32.861Z,12.53
2023-04-06T00:15:59.952Z,12.53
2023-04-06T00:18:27.683Z,10.23
2023-04-06T00:20:54.984Z,13.63
2023-04-06T00:23:22.202Z,12.57
2023-04-06T00:25:49.298Z,9.60
2023-04-06T00:28:16.510Z,12.30
2023-04-06T00:30:43.580Z,11.27
2023-04-06T00:33:10.800Z,11.47
2023-04-06T00:35:38.072Z,11.77
2023-04-06T00:38:05.124Z,9.87
2023-04-06T00:40:33.791Z,9.80
2023-04-06T00:43:01.145Z,7.37
2023-04-06T00:45:28.271Z,11.43
2023-04-06T00:47:55.634Z,9.30
2023-04-06T00:50:22.730Z,9.93
2023-04-06T00:52:49.854Z,11.67
2023-04-06T00:55:18.389Z,9.20
2023-04-06T00:57:45.520Z,14.47
2023-04-06T01:00:14.018Z,11.97
2023-04-06T01:02:41.276Z,12.23
2023-04-06T01:05:08.746Z,9.67
2023-04-06T01:07:36.540Z,13.83
2023-04-06T01:10:04.445Z,14.37
2023-04-06T01:12:31.657Z,13.77
2023-04-06T01:14:58.724Z,10.53
2023-04-06T01:17:26.182Z,10.30
2023-04-06T01:19:54.863Z,14.00
2023-04-06T01:22:21.915Z,13.73
2023-04-06T01:24:49.042Z,12.03
2023-04-06T01:27:16.349Z,11.23
2023-04-06T01:29:44.010Z,12.03
2023-04-06T01:32:11.154Z,12.53
2023-04-06T01:34:38.311Z,13.30
2023-04-06T01:37:05.595Z,12.10
2023-04-06T01:39:32.829Z,13.77
2023-04-06T01:41:59.940Z,10.37
2023-04-06T01:44:27.153Z,11.67
2023-04-06T01:46:54.358Z,16.30
2023-04-06T01:49:21.776Z,12.47
2023-04-06T01:51:48.849Z,11.43
2023-04-06T01:54:15.929Z,14.73
2023-04-06T01:56:43.095Z,9.83
2023-04-06T01:59:10.464Z,10.57
2023-04-06T02:01:37.834Z,11.77
2023-04-06T02:04:04.982Z,8.97
2023-04-06T02:06:32.350Z,11.87
2023-04-06T02:08:59.554Z,11.67
2023-04-06T02:11:26.695Z,12.17
2023-04-06T02:13:53.789Z,14.53
2023-04-06T02:16:20.944Z,9.73
2023-04-06T02:18:48.159Z,16.30
2023-04-06T02:21:18.491Z,11.60
2023-04-06T02:23:45.650Z,12.23
2023-04-06T02:26:12.689Z,10.97
2023-04-06T02:28:39.738Z,12.57
2023-04-06T02:31:06.810Z,10.57
2023-04-06T02:33:33.848Z,10.43
2023-04-06T02:36:01.082Z,11.30
2023-04-06T02:38:28.238Z,11.27
2023-04-06T02:40:55.436Z,10.93
2023-04-06T02:43:22.631Z,14.20
2023-04-06T02:45:49.811Z,11.53
2023-04-06T02:48:16.911Z,7.57
2023-04-06T02:50:44.103Z,12.57
2023-04-06T02:53:11.134Z,12.53
2023-04-06T02:55:38.230Z,9.40
2023-04-06T02:58:05.530Z,9.37
2023-04-06T03:00:32.633Z,14.20
2023-04-06T03:03:00.029Z,10.43
2023-04-06T03:05:27.229Z,12.77
2023-04-06T03:07:54.338Z,16.10
2023-04-06T03:10:21.575Z,11.87
2023-04-06T03:12:48.614Z,9.83
2023-04-06T03:15:15.763Z,10.37
2023-04-06T03:17:42.844Z,8.93
2023-04-06T03:20:10.464Z,11.87
2023-04-06T03:22:37.601Z,8.60
2023-04-06T03:25:05.210Z,8.50
2023-04-06T03:27:32.545Z,10.27
2023-04-06T03:29:59.692Z,10.23
2023-04-06T03:32:27.201Z,11.07
2023-04-06T03:34:54.400Z,11.80
2023-04-06T03:37:21.486Z,9.00
2023-04-06T03:39:48.558Z,12.70
2023-04-06T03:42:15.683Z,10.23
2023-04-06T03:44:42.783Z,10.23
2023-04-06T03:47:09.916Z,10.10
2023-04-06T03:49:38.061Z,8.60
2023-04-06T03:52:06.438Z,12.97
2023-04-06T03:54:33.485Z,9.90
2023-04-06T03:57:01.430Z,16.97
2023-04-06T03:59:28.673Z,12.13
2023-04-06T04:01:55.785Z,10.37
2023-04-06T04:04:22.953Z,8.67
2023-04-06T04:06:50.037Z,9.53
2023-04-06T04:09:17.222Z,11.57
2023-04-06T04:11:44.387Z,16.00
2023-04-06T04:14:11.473Z,14.57
2023-04-06T04:16:40.363Z,9.40
2023-04-06T04:19:07.981Z,8.53
2023-04-06T04:21:42.535Z,11.13
2023-04-06T04:24:09.621Z,16.77
2023-04-06T04:26:36.829Z,8.43
2023-04-06T04:29:04.001Z,11.03
2023-04-06T04:31:31.301Z,11.13
2023-04-06T04:34:01.124Z,9.77
2023-04-06T04:36:28.211Z,11.67
2023-04-06T04:38:55.501Z,12.53
2023-04-06T04:41:22.554Z,10.47
2023-04-06T04:43:49.639Z,16.43
2023-04-06T04:46:16.776Z,11.57
2023-04-06T04:48:43.952Z,11.77
2023-04-06T04:51:11.261Z,11.30
2023-04-06T04:53:38.393Z,12.67
2023-04-06T04:56:05.620Z,9.50
2023-04-06T04:58:32.733Z,9.17
2023-04-06T05:00:59.799Z,12.43
2023-04-06T05:03:28.317Z,15.63
2023-04-06T05:05:55.845Z,11.87
2023-04-06T05:08:22.916Z,16.50
2023-04-06T05:10:50.539Z,16.03
2023-04-06T05:13:17.803Z,15.20
2023-04-06T05:15:45.045Z,12.67
2023-04-06T05:18:13.978Z,17.23
2023-04-06T05:20:41.527Z,12.83
2023-04-06T05:23:08.672Z,13.60
2023-04-06T05:25:36.254Z,10.83
2023-04-06T05:28:03.476Z,15.33
2023-04-06T05:30:31.321Z,14.07
2023-04-06T05:32:59.654Z,16.23
2023-04-06T05:35:26.857Z,13.07
2023-04-06T05:37:53.947Z,10.77
2023-04-06T05:40:21.225Z,14.30
2023-04-06T05:42:48.452Z,17.83
2023-04-06T05:45:17.817Z,14.87
2023-04-06T05:47:45.944Z,14.13
2023-04-06T05:50:16.319Z,18.73
2023-04-06T05:52:44.280Z,12.40
2023-04-06T05:55:12.718Z,17.80
2023-04-06T05:57:40.059Z,16.83
2023-04-06T06:00:10.929Z,20.17
2023-04-06T06:02:38.209Z,16.77
2023-04-06T06:05:05.819Z,14.53
2023-04-06T06:07:32.910Z,11.43
2023-04-06T06:10:00.677Z,17.57
2023-04-06T06:12:27.883Z,10.17
2023-04-06T06:14:55.556Z,15.63
2023-04-06T06:17:22.951Z,18.30
2023-04-06T06:19:50.100Z,14.30
2023-04-06T06:22:17.276Z,24.27
2023-04-06T06:24:44.433Z,15.17
2023-04-06T06:27:11.596Z,13.97
2023-04-06T06:29:38.702Z,13.60
2023-04-06T06:32:06.183Z,17.13
2023-04-06T06:34:33.322Z,12.47
2023-04-06T06:37:00.800Z,15.03
2023-04-06T06:39:27.938Z,14.80
2023-04-06T06:41:56.314Z,15.27
2023-04-06T06:44:23.569Z,16.27
2023-04-06T06:46:50.764Z,10.03
2023-04-06T06:49:17.932Z,11.20
2023-04-06T06:51:45.378Z,13.63
2023-04-06T06:54:12.439Z,20.60
2023-04-06T06:56:40.312Z,20.40
2023-04-06T06:59:07.733Z,14.97
2023-04-06T07:01:35.963Z,12.37
2023-04-06T07:04:03.272Z,11.07
2023-04-06T07:06:30.465Z,14.50
2023-04-06T07:08:57.642Z,15.67
2023-04-06T07:11:24.842Z,11.80
2023-04-06T07:13:52.292Z,14.83
2023-04-06T07:16:19.513Z,12.75
2023-04-06T07:18:47.025Z,12.30
2023-04-06T07:21:14.192Z,14.70
2023-04-06T07:23:41.488Z,15.32
2023-04-06T07:26:08.621Z,13.52
2023-04-06T07:28:35.962Z,10.27
2023-04-06T07:31:03.061Z,15.63
2023-04-06T07:33:31.015Z,10.45
2023-04-06T07:35:59.484Z,10.23
2023-04-06T07:38:26.684Z,12.30
2023-04-06T07:40:54.091Z,12.32
2023-04-06T07:43:21.277Z,12.00
2023-04-06T07:45:48.452Z,17.23
2023-04-06T07:48:18.182Z,15.48
2023-04-06T07:50:45.522Z,10.73
2023-04-06T07:53:12.714Z,11.82
2023-04-06T07:55:39.978Z,8.23
2023-04-06T07:58:07.725Z,11.05
2023-04-06T08:00:34.856Z,11.57
2023-04-06T08:03:02.059Z,7.82
2023-04-06T08:05:29.303Z,11.25
2023-04-06T08:07:56.378Z,13.10
2023-04-06T08:10:23.513Z,8.45
2023-04-06T08:12:50.692Z,11.30
2023-04-06T08:15:19.228Z,10.65
2023-04-06T08:17:46.481Z,10.45
2023-04-06T08:20:13.598Z,11.77
2023-04-06T08:22:41.005Z,19.25
2023-04-06T08:25:08.523Z,8.70
2023-04-06T08:27:35.720Z,9.63
2023-04-06T08:30:03.445Z,7.38
2023-04-06T08:32:30.906Z,12.07
2023-04-06T08:34:59.336Z,15.45
2023-04-06T08:37:26.733Z,14.30
2023-04-06T08:39:53.817Z,8.43
2023-04-06T08:42:22.713Z,11.23
2023-04-06T08:44:52.456Z,11.18
2023-04-06T08:47:23.085Z,9.25
2023-04-06T08:49:53.586Z,10.52
2023-04-06T08:52:21.585Z,9.52
2023-04-06T08:54:48.987Z,9.25
2023-04-06T08:57:17.599Z,10.48
2023-04-06T08:59:46.276Z,8.90
2023-04-06T09:02:19.895Z,11.43
2023-04-06T09:04:51.575Z,13.50
2023-04-06T09:07:18.973Z,10.05
2023-04-06T09:09:49.847Z,11.20
2023-04-06T09:12:28.763Z,15.75
2023-04-06T09:14:57.100Z,8.32
2023-04-06T09:17:28.233Z,8.00
2023-04-06T09:19:55.737Z,11.63
2023-04-06T09:22:23.674Z,8.35
2023-04-06T09:24:55.339Z,8.70
2023-04-06T09:27:39.318Z,8.45
2023-04-06T09:30:14.856Z,11.38
2023-04-06T09:35:28.697Z,13.98
2023-04-06T09:37:56.938Z,8.48
2023-04-06T09:40:24.103Z,6.57
2023-04-06T09:42:53.747Z,8.25
2023-04-06T09:45:21.971Z,6.93
2023-04-06T09:47:52.407Z,6.78
2023-04-06T09:50:20.907Z,6.60
2023-04-06T09:52:51.429Z,6.18
2023-04-06T09:55:35.728Z,6.60
2023-04-06T09:58:08.490Z,8.30
2023-04-06T10:01:11.405Z,6.93
2023-04-06T10:03:58.044Z,6.90
2023-04-06T10:06:29.693Z,7.85
2023-04-06T10:08:58.249Z,6.45
2023-04-06T10:11:25.712Z,10.07
2023-04-06T10:13:56.771Z,7.90
2023-04-06T10:16:25.908Z,4.30
2023-04-06T10:19:08.131Z,6.00
2023-04-06T10:21:37.090Z,11.02
2023-04-06T10:24:11.977Z,9.40
2023-04-06T10:26:39.355Z,3.70
2023-04-06T10:29:07.022Z,4.82
2023-04-06T10:31:34.317Z,2.95
2023-04-06T10:34:03.465Z,5.53
2023-04-06T10:36:35.128Z,5.05
2023-04-06T10:39:07.541Z,3.60
2023-04-06T10:41:44.122Z,4.28
2023-04-06T10:44:23.183Z,3.92
2023-04-06T10:47:04.038Z,9.52
2023-04-06T10:49:31.250Z,10.57
2023-04-06T10:51:59.467Z,4.95
2023-04-06T10:54:28.830Z,3.53
2023-04-06T10:56:57.488Z,4.18
2023-04-06T10:59:26.328Z,5.60
2023-04-06T11:01:54.368Z,4.53
2023-04-06T11:04:22.135Z,7.28
2023-04-06T11:06:51.133Z,8.82
2023-04-06T11:09:29.355Z,3.72
2023-04-06T11:11:57.816Z,5.13
2023-04-06T11:14:25.301Z,3.35
2023-04-06T11:16:52.553Z,4.93
2023-04-06T11:19:20.179Z,18.25
2023-04-06T11:21:49.375Z,5.45
2023-04-06T11:24:24.105Z,7.20
2023-04-06T11:26:59.578Z,6.88
2023-04-06T11:29:32.632Z,3.72
2023-04-06T11:32:05.740Z,12.45
2023-04-06T11:34:39.704Z,3.88
2023-04-06T11:37:12.273Z,11.18
2023-04-06T11:39:43.146Z,6.72
2023-04-06T11:42:10.670Z,4.28
2023-04-06T11:44:41.035Z,3.88
2023-04-06T11:47:10.833Z,4.10
2023-04-06T11:49:48.752Z,4.88
2023-04-06T11:52:28.663Z,4.07
2023-04-06T11:54:57.935Z,8.30
2023-04-06T11:57:29.052Z,4.72
2023-04-06T11:59:56.766Z,3.35
2023-04-06T12:02:23.996Z,3.85
2023-04-06T12:04:51.195Z,13.05
2023-04-06T12:07:18.418Z,12.57
2023-04-06T12:09:45.511Z,12.40
2023-04-06T12:12:12.655Z,7.82
2023-04-06T12:14:39.826Z,8.15
2023-04-06T12:17:06.919Z,20.67
2023-04-06T12:19:34.028Z,4.57
2023-04-06T12:22:01.199Z,8.43
2023-04-06T12:24:29.790Z,7.25
2023-04-06T12:27:08.415Z,3.03
2023-04-06T12:29:36.914Z,6.45
2023-04-06T12:32:04.629Z,5.30
2023-04-06T12:34:31.763Z,5.05
2023-04-06T12:36:59.039Z,3.97
2023-04-06T12:39:28.368Z,11.40
2023-04-06T12:41:56.353Z,5.60
2023-04-06T12:44:25.528Z,6.32
2023-04-06T12:46:54.028Z,4.72
2023-04-06T12:49:21.315Z,7.50
2023-04-06T12:51:48.780Z,4.80
2023-04-06T12:54:16.068Z,3.63
2023-04-06T12:56:43.208Z,4.97
2023-04-06T12:59:10.449Z,6.25
2023-04-06T13:01:37.926Z,3.55
2023-04-06T13:04:07.622Z,4.70
2023-04-06T13:06:34.685Z,4.70
2023-04-06T13:09:01.896Z,6.70
2023-04-06T13:11:29.420Z,7.65
2023-04-06T13:13:59.354Z,6.20
2023-04-06T13:16:26.505Z,5.97
2023-04-06T13:18:53.619Z,6.85
2023-04-06T13:21:21.824Z,4.13
2023-04-06T13:23:49.259Z,4.10
2023-04-06T13:26:17.703Z,5.70
2023-04-06T13:28:45.013Z,3.00
2023-04-06T13:31:12.266Z,5.55
2023-04-06T13:33:40.367Z,7.50
2023-04-06T13:36:08.688Z,4.78
2023-04-06T13:38:40.044Z,4.00
2023-04-06T13:41:07.238Z,3.65
2023-04-06T13:43:36.042Z,7.40
2023-04-06T13:46:04.553Z,7.63
2023-04-06T13:48:31.731Z,6.68
2023-04-06T13:50:59.173Z,7.18
2023-04-06T13:53:26.322Z,6.30
2023-04-06T13:55:55.480Z,5.85
2023-04-06T13:58:22.953Z,10.85
2023-04-06T14:00:50.179Z,3.83
2023-04-06T14:03:17.518Z,5.97
2023-04-06T14:05:45.469Z,5.80
2023-04-06T14:08:12.701Z,8.63
2023-04-06T14:10:43.474Z,6.30
2023-04-06T14:13:11.489Z,7.15
2023-04-06T14:15:40.300Z,9.80
2023-04-06T14:18:10.431Z,6.82
2023-04-06T14:20:37.589Z,11.65
2023-04-06T14:23:05.101Z,9.70
2023-04-06T14:25:32.876Z,12.43
2023-04-06T14:28:00.039Z,12.40
2023-04-06T14:30:28.977Z,8.13
2023-04-06T14:32:59.322Z,18.58
2023-04-06T14:35:29.080Z,10.07
2023-04-06T14:38:01.578Z,7.32
2023-04-06T14:40:28.674Z,12.30
2023-04-06T14:42:56.741Z,6.85
2023-04-06T14:45:23.931Z,6.20
2023-04-06T14:47:51.591Z,5.13
2023-04-06T14:50:18.788Z,10.15
2023-04-06T14:52:47.283Z,12.98
2023-04-06T14:55:15.126Z,8.45
2023-04-06T14:57:42.218Z,6.63
2023-04-06T15:00:10.627Z,8.13
2023-04-06T15:02:39.390Z,4.55
2023-04-06T15:05:07.358Z,4.28
2023-04-06T15:07:34.570Z,4.43
2023-04-06T15:10:01.755Z,7.15
2023-04-06T15:12:30.569Z,13.10
2023-04-06T15:14:57.747Z,7.18
2023-04-06T15:17:27.307Z,9.25
2023-04-06T15:19:54.679Z,7.35
2023-04-06T15:22:21.770Z,6.50
2023-04-06T15:24:48.826Z,4.68
2023-04-06T15:27:16.188Z,4.68
2023-04-06T15:29:43.284Z,8.15
2023-04-06T15:32:10.846Z,6.32
2023-04-06T15:34:38.023Z,5.05
2023-04-06T15:37:05.880Z,5.10
2023-04-06T15:39:33.825Z,6.13
2023-04-06T15:42:01.277Z,9.82
2023-04-06T15:44:28.477Z,6.20
2023-04-06T15:46:55.895Z,5.93
2023-04-06T15:49:23.089Z,7.50
2023-04-06T15:51:51.724Z,5.40
2023-04-06T15:54:21.237Z,5.05
2023-04-06T15:56:50.589Z,7.43
2023-04-06T15:59:17.936Z,4.03
2023-04-06T16:01:47.087Z,4.55
2023-04-06T16:04:14.978Z,4.22
2023-04-06T16:06:42.407Z,4.70
2023-04-06T16:09:09.527Z,9.43
2023-04-06T16:11:37.015Z,3.97
2023-04-06T16:14:05.273Z,7.00
2023-04-06T16:16:32.580Z,5.75
2023-04-06T16:19:00.049Z,6.20
2023-04-06T16:21:28.027Z,5.50
2023-04-06T16:23:56.113Z,5.18
2023-04-06T16:26:24.957Z,5.78
2023-04-06T16:28:52.389Z,4.85
2023-04-06T16:31:24.801Z,4.85
2023-04-06T16:33:57.269Z,5.97
2023-04-06T16:36:32.118Z,7.47
2023-04-06T16:39:01.656Z,9.37
2023-04-06T16:41:29.036Z,4.85
2023-04-06T16:43:57.545Z,6.38
2023-04-06T16:46:39.339Z,5.50
2023-04-06T16:49:07.153Z,9.57
2023-04-06T16:51:36.975Z,6.00
2023-04-06T16:54:04.756Z,5.05
2023-04-06T16:56:33.001Z,4.55
2023-04-06T16:59:00.103Z,9.25
2023-04-06T17:01:29.253Z,10.90
2023-04-06T17:03:57.029Z,9.65
2023-04-06T17:06:25.077Z,5.85
2023-04-06T17:08:53.918Z,10.60
2023-04-06T17:11:25.647Z,5.55
2023-04-06T17:13:56.093Z,6.85
2023-04-06T17:16:23.283Z,8.57
2023-04-06T17:18:50.704Z,11.45
2023-04-06T17:21:20.583Z,8.13
2023-04-06T17:23:48.537Z,6.60
2023-04-06T17:26:16.329Z,5.85
2023-04-06T17:28:43.935Z,7.00
2023-04-06T17:31:12.335Z,6.13
2023-04-06T17:33:41.118Z,6.13
2023-04-06T17:36:12.540Z,4.25
2023-04-06T17:38:43.975Z,7.68
2023-04-06T17:41:13.755Z,8.23
2023-04-06T17:43:40.985Z,14.80
2023-04-06T17:46:08.861Z,5.88
2023-04-06T17:48:36.175Z,6.15
2023-04-06T17:51:03.316Z,5.18
2023-04-06T17:53:32.501Z,7.45
2023-04-06T17:56:04.034Z,7.35
2023-04-06T17:58:31.256Z,5.57
2023-04-06T18:00:58.561Z,9.77
2023-04-06T18:03:26.212Z,10.27
2023-04-06T18:05:53.410Z,5.22
2023-04-06T18:08:22.405Z,5.03
2023-04-06T18:10:49.769Z,6.90
2023-04-06T18:13:17.144Z,4.15
2023-04-06T18:15:44.289Z,7.05
2023-04-06T18:18:11.575Z,8.13
2023-04-06T18:20:41.863Z,6.43
2023-04-06T18:23:09.373Z,6.35
2023-04-06T18:25:42.572Z,4.68
2023-04-06T18:28:10.044Z,5.43
2023-04-06T18:30:37.251Z,4.72
2023-04-06T18:33:04.825Z,5.53
2023-04-06T18:35:32.061Z,6.13
2023-04-06T18:37:59.265Z,5.05
2023-04-06T18:40:32.968Z,7.88
2023-04-06T18:43:00.501Z,7.93
2023-04-06T18:45:28.139Z,6.13
2023-04-06T18:47:57.481Z,6.25
2023-04-06T18:50:25.242Z,5.65
2023-04-06T18:52:52.935Z,8.30
2023-04-06T18:55:20.992Z,5.85
2023-04-06T18:57:48.590Z,6.00
2023-04-06T19:00:17.511Z,7.97
2023-04-06T19:02:45.656Z,8.15
2023-04-06T19:05:14.461Z,5.57
2023-04-06T19:07:42.583Z,6.85
2023-04-06T19:10:11.118Z,6.35
2023-04-06T19:12:40.015Z,5.80
2023-04-06T19:15:08.687Z,4.35
2023-04-06T19:17:36.001Z,5.55
2023-04-06T19:20:03.395Z,5.00
2023-04-06T19:22:30.879Z,6.32
2023-04-06T19:24:58.184Z,7.68
2023-04-06T19:27:25.638Z,6.55
2023-04-06T19:29:52.844Z,9.70
2023-04-06T19:32:20.425Z,7.50
2023-04-06T19:34:47.615Z,6.97
2023-04-06T19:37:14.835Z,6.68
2023-04-06T19:39:44.226Z,7.88
2023-04-06T19:42:12.378Z,5.47
2023-04-06T19:44:39.756Z,5.97
2023-04-06T19:47:07.101Z,5.82
2023-04-06T19:49:34.451Z,5.45
2023-04-06T19:52:01.607Z,5.90
2023-04-06T19:54:28.954Z,7.47
2023-04-06T19:56:57.143Z,6.68
2023-04-06T19:59:24.322Z,5.82
2023-04-06T20:01:51.501Z,5.63
2023-04-06T20:04:18.867Z,8.80
2023-04-06T20:06:46.202Z,6.32
2023-04-06T20:09:15.690Z,5.88
2023-04-06T20:11:43.231Z,6.60
2023-04-06T20:14:10.399Z,5.43
2023-04-06T20:16:37.812Z,9.77
2023-04-06T20:19:05.032Z,8.73
2023-04-06T20:21:32.268Z,6.88
2023-04-06T20:23:59.382Z,5.05
2023-04-06T20:26:27.129Z,9.43
2023-04-06T20:28:54.317Z,5.00
2023-04-06T20:31:25.511Z,7.25
2023-04-06T20:33:52.781Z,7.50
2023-04-06T20:36:22.051Z,7.32
2023-04-06T20:38:49.426Z,6.20
2023-04-06T20:41:16.834Z,8.98
2023-04-06T20:43:44.071Z,7.53
2023-04-06T20:46:17.591Z,7.45
2023-04-06T20:48:44.942Z,11.15
2023-04-06T20:51:20.714Z,6.72
2023-04-06T20:53:48.661Z,5.68
2023-04-06T20:56:16.132Z,7.53
2023-04-06T20:58:43.290Z,7.65
2023-04-06T21:01:15.636Z,6.40
2023-04-06T21:03:43.785Z,8.60
2023-04-06T21:06:11.584Z,7.22
2023-04-06T21:08:38.763Z,7.47
2023-04-06T21:11:06.415Z,8.65
2023-04-06T21:13:34.753Z,6.38
2023-04-06T21:16:03.072Z,7.65
2023-04-06T21:18:31.836Z,7.60
2023-04-06T21:20:59.342Z,6.75
2023-04-06T21:23:26.500Z,8.38
2023-04-06T21:25:57.050Z,7.00
2023-04-06T21:28:26.327Z,8.90
2023-04-06T21:30:54.109Z,6.25
2023-04-06T21:33:21.755Z,10.13
2023-04-06T21:35:49.121Z,6.68
2023-04-06T21:38:16.436Z,8.00
2023-04-06T21:40:43.633Z,10.60
2023-04-06T21:43:10.803Z,14.93
2023-04-06T21:45:38.050Z,9.52
2023-04-06T21:48:05.697Z,13.77
2023-04-06T21:50:32.917Z,8.02
2023-04-06T21:53:00.109Z,6.97
2023-04-06T21:55:27.396Z,8.80
2023-04-06T21:57:54.476Z,10.27
2023-04-06T22:00:21.567Z,9.60
2023-04-06T22:02:48.912Z,10.90
2023-04-06T22:05:16.441Z,9.57
2023-04-06T22:07:46.524Z,7.93
2023-04-06T22:10:13.631Z,8.98
2023-04-06T22:12:40.841Z,9.65
2023-04-06T22:15:11.760Z,12.82
2023-04-06T22:17:38.984Z,16.23
2023-04-06T22:20:07.031Z,15.73
2023-04-06T22:22:34.161Z,14.52
2023-04-06T22:25:01.320Z,16.75
2023-04-06T22:27:28.602Z,12.25
2023-04-06T22:29:56.370Z,15.27
2023-04-06T22:32:23.700Z,16.02
2023-04-06T22:34:50.832Z,16.67
2023-04-06T22:37:17.904Z,17.85
2023-04-06T22:39:45.507Z,20.05
2023-04-06T22:42:12.635Z,21.42
2023-04-06T22:44:39.722Z,17.00
2023-04-06T22:47:06.900Z,20.73
2023-04-06T22:49:34.136Z,19.13
2023-04-06T22:52:01.358Z,23.50
2023-04-06T22:54:28.579Z,19.50
2023-04-06T22:56:56.687Z,16.02
2023-04-06T22:59:23.938Z,17.88
2023-04-06T23:01:51.116Z,17.38
2023-04-06T23:04:18.518Z,16.80
2023-04-06T23:06:46.132Z,15.32
2023-04-06T23:09:13.214Z,19.05
2023-04-06T23:11:40.400Z,16.77
2023-04-06T23:14:07.501Z,18.95
2023-04-06T23:16:34.733Z,15.35
2023-04-06T23:19:01.854Z,14.32
2023-04-06T23:21:29.741Z,12.82
2023-04-06T23:23:57.637Z,12.20
2023-04-06T23:26:24.779Z,13.57
2023-04-06T23:28:51.942Z,13.35
2023-04-06T23:31:19.117Z,11.23
2023-04-06T23:33:46.311Z,11.88
2023-04-06T23:36:13.397Z,13.82
2023-04-06T23:38:40.594Z,16.52
2023-04-06T23:41:07.753Z,12.50
2023-04-06T23:43:34.851Z,13.10
2023-04-06T23:46:02.034Z,18.25
2023-04-06T23:48:29.136Z,14.30
2023-04-06T23:50:56.548Z,14.32
2023-04-06T23:53:23.703Z,12.30
2023-04-06T23:55:50.856Z,15.55
2023-04-06T23:58:18.016Z,13.30
